Upsala, MN (56384)

8:54 AM CDT on May 25, 2015 (GMT -0500)
Swanville | | Change Station
CLOSE
Current Station
Personal Weather Station
Location: Swanville, MN
Elevation: 1158 ft
Nearby Weather Stations

Elev 1158 ft 45.91 °N, 94.54 °W | Updated 43 seconds ago

Overcast
Overcast
56.6 °F
Feels Like 56.6 °F
N
0.0
Wind Variable Wind from NE
Gusts 0.0 mph

Today
High -- | Low -- °F
--% Chance of Precip.
Yesterday
High -- | Low -- °F
Precip. -- in
5:36 AM 8:54 PM
Waxing Crescent, 49% visible
Pressure 29.67 in
Visibility 3.0 miles
Clouds Mostly Cloudy 700 ft
Overcast 1000 ft
Dew Point 55 °F
Humidity 94%
Rainfall 0.15 in
Snow Depth Not available.
UV 1 out of 12
Pollen .90 out of 12
Air Quality Not available.
Flu Activity Sporadic
METAR KLXL 251335Z AUTO 05003KT 3SM DZ BKN007 OVC010 13/12 A2967 RMK AO2 P0001

More Conditions Fewer Conditions

Pressure 29.67 in
Visibility 3.0 miles
Clouds Mostly Cloudy 700 ft
Overcast 1000 ft
Dew Point 55 °F
Humidity 94%
Rainfall 0.15 in
Snow Depth Not available.
UV 1 out of 12
Pollen .90 out of 12
Air Quality Not available.
Flu Activity Sporadic
METAR KLXL 251335Z AUTO 05003KT 3SM DZ BKN007 OVC010 13/12 A2967 RMK AO2 P0001

More Conditions Fewer Conditions

10-Day Weather Forecast

Almanac

Astronomy

May. 25, 2015 Rise Set
Actual Time
Civil Twilight
Nautical Twilight
Astronomical Twilight
Moon
Length of Visible Light
Length of Day
Tomorrow will be .
, % of the Moon is Illuminated

Today's Extremes

State Highs State Lows

Community

WunderPhotos

Upload Photos

1,824,009 photos uploaded!

WunderBlogs® & News

Nearby

Air Quality

  Air Quality AQ Index Pollutant
Not available.

Snow Depth

Station Depth Elevation

Earthquake Activity

City Distance Mag. Time & Date
Minimum magnitude displayed is 2.5.

Coastal Water Temperatures

Place Temperature

Stations

Nearby Weather Stations

Station Location Temp. Windchill Dew Point Humidity Wind Precip. Elev Updated Type